sensor_id;sensor_type;location;lat;lon;timestamp;pressure;altitude;pressure_sealevel;temperature;humidity
75594;BME280;64176;49.156;7.810;2023-08-08T00:01:57;99287.34;;;11.67;96.14
75594;BME280;64176;49.156;7.810;2023-08-08T00:04:42;99287.41;;;11.81;95.86
75594;BME280;64176;49.156;7.810;2023-08-08T00:07:26;99268.38;;;11.70;96.90
75594;BME280;64176;49.156;7.810;2023-08-08T00:10:14;99279.63;;;11.75;96.95
75594;BME280;64176;49.156;7.810;2023-08-08T00:12:57;99278.75;;;11.82;95.83
75594;BME280;64176;49.156;7.810;2023-08-08T00:15:41;99286.47;;;11.72;95.60
75594;BME280;64176;49.156;7.810;2023-08-08T00:18:28;99292.50;;;11.60;96.37
75594;BME280;64176;49.156;7.810;2023-08-08T00:21:12;99280.38;;;11.41;96.83
75594;BME280;64176;49.156;7.810;2023-08-08T00:23:56;99282.13;;;11.45;97.21
75594;BME280;64176;49.156;7.810;2023-08-08T00:26:42;99279.53;;;11.49;96.58
75594;BME280;64176;49.156;7.810;2023-08-08T00:29:29;99286.38;;;11.30;97.95
75594;BME280;64176;49.156;7.810;2023-08-08T00:32:13;99275.13;;;11.16;97.96
75594;BME280;64176;49.156;7.810;2023-08-08T00:34:57;99278.63;;;11.27;98.05
75594;BME280;64176;49.156;7.810;2023-08-08T00:37:41;99270.91;;;11.43;97.27
75594;BME280;64176;49.156;7.810;2023-08-08T00:40:24;99266.63;;;11.58;96.16
75594;BME280;64176;49.156;7.810;2023-08-08T00:43:08;99268.34;;;11.47;96.38
75594;BME280;64176;49.156;7.810;2023-08-08T00:45:52;99267.41;;;11.27;97.17
75594;BME280;64176;49.156;7.810;2023-08-08T00:48:36;99265.66;;;11.18;96.91
75594;BME280;64176;49.156;7.810;2023-08-08T00:51:21;99271.63;;;10.99;97.72
75594;BME280;64176;49.156;7.810;2023-08-08T00:54:08;99274.25;;;11.16;97.97
75594;BME280;64176;49.156;7.810;2023-08-08T00:56:53;99270.81;;;11.11;98.39
75594;BME280;64176;49.156;7.810;2023-08-08T00:59:40;99267.38;;;11.15;98.01
75594;BME280;64176;49.156;7.810;2023-08-08T01:02:24;99272.50;;;11.00;98.68
75594;BME280;64176;49.156;7.810;2023-08-08T01:05:08;99269.09;;;11.16;98.48
75594;BME280;64176;49.156;7.810;2023-08-08T01:08:04;99273.47;;;11.34;97.49
75594;BME280;64176;49.156;7.810;2023-08-08T01:10:49;99255.28;;;11.08;97.97
75594;BME280;64176;49.156;7.810;2023-08-08T01:13:36;99257.06;;;11.24;98.04
75594;BME280;64176;49.156;7.810;2023-08-08T01:16:21;99258.81;;;11.43;97.11
75594;BME280;64176;49.156;7.810;2023-08-08T01:19:09;99260.56;;;11.44;96.88
75594;BME280;64176;49.156;7.810;2023-08-08T01:22:00;99259.59;;;11.12;97.33
75594;BME280;64176;49.156;7.810;2023-08-08T01:24:48;99252.72;;;11.12;97.87
75594;BME280;64176;49.156;7.810;2023-08-08T01:27:32;99264.81;;;11.27;97.31
75594;BME280;64176;49.156;7.810;2023-08-08T01:30:17;99263.09;;;11.29;97.33
75594;BME280;64176;49.156;7.810;2023-08-08T01:33:01;99250.19;;;11.37;96.78
75594;BME280;64176;49.156;7.810;2023-08-08T01:35:58;99259.72;;;11.47;96.42
75594;BME280;64176;49.156;7.810;2023-08-08T01:38:44;99257.00;;;11.09;97.71
75594;BME280;64176;49.156;7.810;2023-08-08T01:41:33;99263.88;;;11.02;98.97
75594;BME280;64176;49.156;7.810;2023-08-08T01:44:20;99252.66;;;10.92;98.78
75594;BME280;64176;49.156;7.810;2023-08-08T01:47:08;99258.75;;;11.17;98.14
75594;BME280;64176;49.156;7.810;2023-08-08T01:49:53;99253.59;;;11.22;97.31
75594;BME280;64176;49.156;7.810;2023-08-08T01:52:37;99258.78;;;11.22;97.73
75594;BME280;64176;49.156;7.810;2023-08-08T01:55:21;99266.50;;;11.10;98.00
75594;BME280;64176;49.156;7.810;2023-08-08T01:58:05;99263.03;;;11.09;98.71
75594;BME280;64176;49.156;7.810;2023-08-08T02:00:49;99251.00;;;11.11;98.47
75594;BME280;64176;49.156;7.810;2023-08-08T02:03:33;99247.53;;;11.03;98.77
75594;BME280;64176;49.156;7.810;2023-08-08T02:06:17;99262.13;;;10.92;99.52
75594;BME280;64176;49.156;7.810;2023-08-08T02:09:02;99250.13;;;11.09;98.82
75594;BME280;64176;49.156;7.810;2023-08-08T02:11:46;99251.75;;;10.86;98.76
75594;BME280;64176;49.156;7.810;2023-08-08T02:14:30;99244.84;;;10.85;99.53
75594;BME280;64176;49.156;7.810;2023-08-08T02:17:14;99252.63;;;10.86;99.11
75594;BME280;64176;49.156;7.810;2023-08-08T02:19:58;99251.66;;;10.68;99.73
75594;BME280;64176;49.156;7.810;2023-08-08T02:22:44;99245.66;;;10.70;100.00
75594;BME280;64176;49.156;7.810;2023-08-08T02:25:31;99256.94;;;10.93;98.62
75594;BME280;64176;49.156;7.810;2023-08-08T02:28:15;99251.72;;;10.77;99.51
75594;BME280;64176;49.156;7.810;2023-08-08T02:31:01;99251.56;;;10.49;100.00
75594;BME280;64176;49.156;7.810;2023-08-08T02:33:50;99245.56;;;10.55;99.47
75594;BME280;64176;49.156;7.810;2023-08-08T02:36:34;99264.59;;;10.68;98.79
75594;BME280;64176;49.156;7.810;2023-08-08T02:39:21;99264.63;;;10.71;99.37
75594;BME280;64176;49.156;7.810;2023-08-08T02:42:05;99260.34;;;10.85;98.30
75594;BME280;64176;49.156;7.810;2023-08-08T02:44:55;99256.00;;;10.70;97.92
75594;BME280;64176;49.156;7.810;2023-08-08T02:47:39;99249.91;;;10.57;98.73
75594;BME280;64176;49.156;7.810;2023-08-08T02:50:23;99252.44;;;10.53;99.41
75594;BME280;64176;49.156;7.810;2023-08-08T02:53:08;99254.25;;;10.68;98.60
75594;BME280;64176;49.156;7.810;2023-08-08T02:55:58;99261.09;;;10.58;98.44
75594;BME280;64176;49.156;7.810;2023-08-08T02:58:43;99262.75;;;10.45;99.45
75594;BME280;64176;49.156;7.810;2023-08-08T03:01:30;99267.03;;;10.43;99.80
75594;BME280;64176;49.156;7.810;2023-08-08T03:04:18;99261.91;;;10.46;99.32
75594;BME280;64176;49.156;7.810;2023-08-08T03:07:03;99268.00;;;10.59;98.05
75594;BME280;64176;49.156;7.810;2023-08-08T03:09:49;99260.16;;;10.44;97.88
75594;BME280;64176;49.156;7.810;2023-08-08T03:12:33;99253.22;;;10.37;98.12
75594;BME280;64176;49.156;7.810;2023-08-08T03:15:18;99241.94;;;10.23;98.28
75594;BME280;64176;49.156;7.810;2023-08-08T03:18:02;99247.91;;;10.15;98.93
75594;BME280;64176;49.156;7.810;2023-08-08T03:20:47;99256.50;;;10.17;98.89
75594;BME280;64176;49.156;7.810;2023-08-08T03:23:38;99246.25;;;10.24;98.65
75594;BME280;64176;49.156;7.810;2023-08-08T03:26:22;99246.22;;;10.20;98.88
75594;BME280;64176;49.156;7.810;2023-08-08T03:29:09;99246.09;;;10.04;99.05
75594;BME280;64176;49.156;7.810;2023-08-08T03:32:01;99239.13;;;9.94;99.19
75594;BME280;64176;49.156;7.810;2023-08-08T03:34:48;99258.81;;;9.84;99.40
75594;BME280;64176;49.156;7.810;2023-08-08T03:37:33;99251.06;;;9.84;99.78
75594;BME280;64176;49.156;7.810;2023-08-08T03:40:17;99253.78;;;9.98;99.14
75594;BME280;64176;49.156;7.810;2023-08-08T03:43:01;99249.31;;;9.77;99.56
75594;BME280;64176;49.156;7.810;2023-08-08T03:45:47;99248.50;;;9.85;98.93
75594;BME280;64176;49.156;7.810;2023-08-08T03:48:35;99251.16;;;9.95;98.76
75594;BME280;64176;49.156;7.810;2023-08-08T03:51:19;99251.13;;;9.90;98.87
75594;BME280;64176;49.156;7.810;2023-08-08T03:54:03;99254.41;;;9.72;99.60
75594;BME280;64176;49.156;7.810;2023-08-08T03:56:47;99259.53;;;9.66;100.00
75594;BME280;64176;49.156;7.810;2023-08-08T03:59:36;99253.69;;;9.87;98.75
75594;BME280;64176;49.156;7.810;2023-08-08T04:02:24;99255.47;;;9.93;98.40
75594;BME280;64176;49.156;7.810;2023-08-08T04:05:08;99260.47;;;9.74;99.03
75594;BME280;64176;49.156;7.810;2023-08-08T04:07:52;99253.56;;;9.70;98.86
75594;BME280;64176;49.156;7.810;2023-08-08T04:10:36;99254.34;;;9.65;99.31
75594;BME280;64176;49.156;7.810;2023-08-08T04:13:20;99253.41;;;9.55;99.21
75594;BME280;64176;49.156;7.810;2023-08-08T04:16:06;99259.56;;;9.68;98.81
75594;BME280;64176;49.156;7.810;2023-08-08T04:18:50;99263.78;;;9.60;98.46
75594;BME280;64176;49.156;7.810;2023-08-08T04:21:35;99272.38;;;9.59;98.27
75594;BME280;64176;49.156;7.810;2023-08-08T04:24:19;99262.00;;;9.56;99.18
75594;BME280;64176;49.156;7.810;2023-08-08T04:27:03;99268.19;;;9.73;98.04
75594;BME280;64176;49.156;7.810;2023-08-08T04:29:47;99267.28;;;9.66;98.36
75594;BME280;64176;49.156;7.810;2023-08-08T04:32:31;99270.59;;;9.55;99.11
75594;BME280;64176;49.156;7.810;2023-08-08T04:35:15;99267.22;;;9.62;98.67
75594;BME280;64176;49.156;7.810;2023-08-08T04:37:59;99271.31;;;9.41;99.37
75594;BME280;64176;49.156;7.810;2023-08-08T04:40:43;99273.06;;;9.44;98.91
75594;BME280;64176;49.156;7.810;2023-08-08T04:43:27;99261.97;;;9.53;98.80
75594;BME280;64176;49.156;7.810;2023-08-08T04:46:12;99263.69;;;9.52;99.14
75594;BME280;64176;49.156;7.810;2023-08-08T04:48:59;99266.25;;;9.47;99.29
75594;BME280;64176;49.156;7.810;2023-08-08T04:51:43;99264.53;;;9.51;99.11
75594;BME280;64176;49.156;7.810;2023-08-08T04:54:27;99265.56;;;9.67;98.83
75594;BME280;64176;49.156;7.810;2023-08-08T04:57:13;99270.50;;;9.44;99.21
75594;BME280;64176;49.156;7.810;2023-08-08T04:59:57;99273.97;;;9.47;98.55
75594;BME280;64176;49.156;7.810;2023-08-08T05:02:41;99269.00;;;9.67;98.02
75594;BME280;64176;49.156;7.810;2023-08-08T05:05:25;99274.94;;;9.57;98.70
75594;BME280;64176;49.156;7.810;2023-08-08T05:08:09;99281.69;;;9.46;99.70
75594;BME280;64176;49.156;7.810;2023-08-08T05:10:55;99282.56;;;9.46;99.51
75594;BME280;64176;49.156;7.810;2023-08-08T05:13:39;99274.06;;;9.57;99.62
75594;BME280;64176;49.156;7.810;2023-08-08T05:16:23;99274.16;;;9.67;99.05
75594;BME280;64176;49.156;7.810;2023-08-08T05:19:08;99274.38;;;9.95;97.45
75594;BME280;64176;49.156;7.810;2023-08-08T05:21:52;99270.13;;;9.98;97.72
75594;BME280;64176;49.156;7.810;2023-08-08T05:24:41;99271.72;;;9.81;98.32
75594;BME280;64176;49.156;7.810;2023-08-08T05:27:27;99264.13;;;9.99;98.21
75594;BME280;64176;49.156;7.810;2023-08-08T05:30:14;99264.97;;;10.00;98.35
75594;BME280;64176;49.156;7.810;2023-08-08T05:32:58;99265.06;;;10.10;97.54
75594;BME280;64176;49.156;7.810;2023-08-08T05:35:42;99269.63;;;10.45;96.31
75594;BME280;64176;49.156;7.810;2023-08-08T05:38:25;99248.88;;;10.31;96.86
75594;BME280;64176;49.156;7.810;2023-08-08T05:41:09;99264.41;;;10.39;97.22
75594;BME280;64176;49.156;7.810;2023-08-08T05:43:53;99258.56;;;10.69;95.59
75594;BME280;64176;49.156;7.810;2023-08-08T05:46:37;99260.22;;;10.61;96.32
75594;BME280;64176;49.156;7.810;2023-08-08T05:49:24;99261.91;;;10.51;97.34
75594;BME280;64176;49.156;7.810;2023-08-08T05:52:08;99268.06;;;10.70;97.88
75594;BME280;64176;49.156;7.810;2023-08-08T05:54:52;99268.22;;;11.08;95.64
75594;BME280;64176;49.156;7.810;2023-08-08T05:57:36;99269.81;;;10.78;97.47
75594;BME280;64176;49.156;7.810;2023-08-08T06:00:23;99259.66;;;11.22;95.41
75594;BME280;64176;49.156;7.810;2023-08-08T06:03:07;99264.06;;;11.69;93.30
75594;BME280;64176;49.156;7.810;2023-08-08T06:05:51;99258.06;;;11.91;92.45
75594;BME280;64176;49.156;7.810;2023-08-08T06:08:35;99258.03;;;11.94;92.56
75594;BME280;64176;49.156;7.810;2023-08-08T06:11:19;99245.03;;;12.38;90.75
75594;BME280;64176;49.156;7.810;2023-08-08T06:14:05;99246.75;;;12.44;90.23
75594;BME280;64176;49.156;7.810;2023-08-08T06:16:49;99244.94;;;12.80;89.00
75594;BME280;64176;49.156;7.810;2023-08-08T06:19:33;99244.75;;;13.25;87.27
75594;BME280;64176;49.156;7.810;2023-08-08T06:22:17;99241.31;;;13.25;87.12
75594;BME280;64176;49.156;7.810;2023-08-08T06:25:04;99244.56;;;13.53;86.93
75594;BME280;64176;49.156;7.810;2023-08-08T06:27:48;99246.16;;;13.70;86.49
75594;BME280;64176;49.156;7.810;2023-08-08T06:30:33;99251.34;;;13.76;86.61
75594;BME280;64176;49.156;7.810;2023-08-08T06:33:19;99246.03;;;13.92;85.42
75594;BME280;64176;49.156;7.810;2023-08-08T06:36:06;99246.53;;;14.30;83.84
75594;BME280;64176;49.156;7.810;2023-08-08T06:38:50;99244.81;;;14.29;83.53
75594;BME280;64176;49.156;7.810;2023-08-08T06:41:34;99240.03;;;14.72;81.82
75594;BME280;64176;49.156;7.810;2023-08-08T06:44:19;99239.66;;;15.03;80.17
75594;BME280;64176;49.156;7.810;2023-08-08T06:47:03;99231.81;;;15.69;76.55
75594;BME280;64176;49.156;7.810;2023-08-08T06:49:47;99227.63;;;18.49;64.21
75594;BME280;64176;49.156;7.810;2023-08-08T06:52:30;99219.34;;;18.66;63.36
75594;BME280;64176;49.156;7.810;2023-08-08T06:55:14;99209.88;;;19.50;59.54
75594;BME280;64176;49.156;7.810;2023-08-08T06:57:58;99209.56;;;19.02;60.64
75594;BME280;64176;49.156;7.810;2023-08-08T07:00:42;99205.09;;;19.06;60.22
75594;BME280;64176;49.156;7.810;2023-08-08T07:03:26;99205.41;;;19.54;58.39
75594;BME280;64176;49.156;7.810;2023-08-08T07:06:10;99204.09;;;18.80;59.86
75594;BME280;64176;49.156;7.810;2023-08-08T07:08:54;99210.72;;;18.63;58.92
75594;BME280;64176;49.156;7.810;2023-08-08T07:11:38;99211.50;;;18.66;59.07
75594;BME280;64176;49.156;7.810;2023-08-08T07:14:22;99209.22;;;18.52;59.14
75594;BME280;64176;49.156;7.810;2023-08-08T07:17:06;99212.72;;;18.51;58.06
75594;BME280;64176;49.156;7.810;2023-08-08T07:19:50;99203.56;;;17.67;59.85
75594;BME280;64176;49.156;7.810;2023-08-08T07:22:34;99219.38;;;18.32;59.05
75594;BME280;64176;49.156;7.810;2023-08-08T07:25:18;99215.88;;;17.64;60.76
75594;BME280;64176;49.156;7.810;2023-08-08T07:28:04;99210.94;;;18.21;59.58
75594;BME280;64176;49.156;7.810;2023-08-08T07:30:48;99208.88;;;18.00;59.79
75594;BME280;64176;49.156;7.810;2023-08-08T07:33:32;99210.28;;;17.40;61.78
75594;BME280;64176;49.156;7.810;2023-08-08T07:36:16;99209.16;;;17.51;61.62
75594;BME280;64176;49.156;7.810;2023-08-08T07:39:01;99206.41;;;17.94;59.39
75594;BME280;64176;49.156;7.810;2023-08-08T07:41:47;99216.66;;;18.01;58.90
75594;BME280;64176;49.156;7.810;2023-08-08T07:44:33;99222.41;;;18.15;58.64
75594;BME280;64176;49.156;7.810;2023-08-08T07:47:18;99228.38;;;17.48;59.68
75594;BME280;64176;49.156;7.810;2023-08-08T07:50:06;99204.31;;;17.72;59.07
75594;BME280;64176;49.156;7.810;2023-08-08T07:52:52;99223.97;;;17.89;58.25
75594;BME280;64176;49.156;7.810;2023-08-08T07:55:36;99211.91;;;18.49;57.62
75594;BME280;64176;49.156;7.810;2023-08-08T07:58:20;99216.19;;;18.21;57.37
75594;BME280;64176;49.156;7.810;2023-08-08T08:01:09;99213.47;;;17.90;58.44
75594;BME280;64176;49.156;7.810;2023-08-08T08:03:54;99207.69;;;17.39;59.88
75594;BME280;64176;49.156;7.810;2023-08-08T08:06:38;99212.44;;;17.59;59.48
75594;BME280;64176;49.156;7.810;2023-08-08T08:09:22;99211.63;;;17.57;59.54
75594;BME280;64176;49.156;7.810;2023-08-08T08:12:06;99214.13;;;17.61;59.76
75594;BME280;64176;49.156;7.810;2023-08-08T08:14:50;99207.44;;;17.88;58.12
75594;BME280;64176;49.156;7.810;2023-08-08T08:17:34;99208.94;;;17.97;58.27
75594;BME280;64176;49.156;7.810;2023-08-08T08:20:21;99213.13;;;18.04;57.93
75594;BME280;64176;49.156;7.810;2023-08-08T08:23:08;99203.19;;;18.49;57.35
75594;BME280;64176;49.156;7.810;2023-08-08T08:25:51;99208.59;;;18.10;57.49
75594;BME280;64176;49.156;7.810;2023-08-08T08:28:35;99212.31;;;17.66;58.74
75594;BME280;64176;49.156;7.810;2023-08-08T08:31:19;99208.66;;;18.09;57.96
75594;BME280;64176;49.156;7.810;2023-08-08T08:34:03;99207.09;;;17.66;59.20
75594;BME280;64176;49.156;7.810;2023-08-08T08:36:51;99208.69;;;18.07;58.16
75594;BME280;64176;49.156;7.810;2023-08-08T08:39:37;99216.25;;;17.84;58.32
75594;BME280;64176;49.156;7.810;2023-08-08T08:42:22;99206.66;;;17.83;56.99
75594;BME280;64176;49.156;7.810;2023-08-08T08:45:06;99201.03;;;18.00;56.50
75594;BME280;64176;49.156;7.810;2023-08-08T08:47:54;99208.56;;;17.78;57.96
75594;BME280;64176;49.156;7.810;2023-08-08T08:50:40;99192.91;;;17.76;57.79
75594;BME280;64176;49.156;7.810;2023-08-08T08:53:25;99202.41;;;17.79;56.90
75594;BME280;64176;49.156;7.810;2023-08-08T08:56:09;99197.72;;;17.92;56.52
75594;BME280;64176;49.156;7.810;2023-08-08T08:58:54;99189.22;;;17.83;56.32
75594;BME280;64176;49.156;7.810;2023-08-08T09:01:38;99187.69;;;18.43;55.32
75594;BME280;64176;49.156;7.810;2023-08-08T09:04:23;99184.59;;;17.95;54.86
75594;BME280;64176;49.156;7.810;2023-08-08T09:07:08;99182.84;;;17.58;56.21
75594;BME280;64176;49.156;7.810;2023-08-08T09:09:53;99173.50;;;17.85;56.22
75594;BME280;64176;49.156;7.810;2023-08-08T09:12:37;99188.94;;;18.28;54.53
75594;BME280;64176;49.156;7.810;2023-08-08T09:15:21;99182.78;;;18.31;55.67
75594;BME280;64176;49.156;7.810;2023-08-08T09:18:07;99189.06;;;17.90;54.83
75594;BME280;64176;49.156;7.810;2023-08-08T09:20:51;99181.56;;;18.44;55.54
75594;BME280;64176;49.156;7.810;2023-08-08T09:23:37;99175.78;;;18.64;54.68
75594;BME280;64176;49.156;7.810;2023-08-08T09:26:22;99180.06;;;18.34;53.36
75594;BME280;64176;49.156;7.810;2023-08-08T09:29:08;99177.31;;;18.38;53.95
75594;BME280;64176;49.156;7.810;2023-08-08T09:31:53;99169.97;;;18.52;53.54
75594;BME280;64176;49.156;7.810;2023-08-08T09:34:42;99169.94;;;18.85;52.69
75594;BME280;64176;49.156;7.810;2023-08-08T09:37:28;99165.75;;;18.14;53.16
75594;BME280;64176;49.156;7.810;2023-08-08T09:40:12;99166.63;;;18.46;53.35
75594;BME280;64176;49.156;7.810;2023-08-08T09:42:57;99151.19;;;18.37;53.42
75594;BME280;64176;49.156;7.810;2023-08-08T09:45:43;99167.78;;;18.36;53.32
75594;BME280;64176;49.156;7.810;2023-08-08T09:48:32;99162.47;;;18.39;50.78
75594;BME280;64176;49.156;7.810;2023-08-08T09:51:16;99155.84;;;18.58;51.04
75594;BME280;64176;49.156;7.810;2023-08-08T09:54:01;99167.38;;;18.82;50.53
75594;BME280;64176;49.156;7.810;2023-08-08T09:56:48;99157.84;;;18.79;49.26
75594;BME280;64176;49.156;7.810;2023-08-08T09:59:34;99171.25;;;18.69;51.34
75594;BME280;64176;49.156;7.810;2023-08-08T10:02:19;99159.09;;;18.35;49.47
75594;BME280;64176;49.156;7.810;2023-08-08T10:05:06;99164.00;;;18.78;50.25
75594;BME280;64176;49.156;7.810;2023-08-08T10:07:55;99166.72;;;18.75;48.19
75594;BME280;64176;49.156;7.810;2023-08-08T10:10:45;99171.06;;;18.76;48.65
75594;BME280;64176;49.156;7.810;2023-08-08T10:13:32;99174.09;;;18.61;48.27
75594;BME280;64176;49.156;7.810;2023-08-08T10:16:19;99163.47;;;18.97;49.25
75594;BME280;64176;49.156;7.810;2023-08-08T10:19:04;99156.28;;;19.03;50.11
75594;BME280;64176;49.156;7.810;2023-08-08T10:21:56;99162.94;;;18.85;49.45
75594;BME280;64176;49.156;7.810;2023-08-08T10:24:41;99163.66;;;19.18;49.05
75594;BME280;64176;49.156;7.810;2023-08-08T10:27:33;99164.28;;;18.99;49.60
75594;BME280;64176;49.156;7.810;2023-08-08T10:30:17;99167.69;;;19.01;50.48
75594;BME280;64176;49.156;7.810;2023-08-08T10:33:01;99153.84;;;19.25;50.40
75594;BME280;64176;49.156;7.810;2023-08-08T10:38:43;99151.59;;;19.95;50.38
75594;BME280;64176;49.156;7.810;2023-08-08T10:41:28;99139.16;;;20.25;48.99
75594;BME280;64176;49.156;7.810;2023-08-08T10:44:12;99146.88;;;19.78;48.81
75594;BME280;64176;49.156;7.810;2023-08-08T10:46:57;99137.47;;;19.45;50.41
75594;BME280;64176;49.156;7.810;2023-08-08T10:49:41;99150.31;;;20.07;49.32
75594;BME280;64176;49.156;7.810;2023-08-08T10:52:29;99140.19;;;19.96;48.16
75594;BME280;64176;49.156;7.810;2023-08-08T10:58:09;99140.13;;;19.97;48.54
75594;BME280;64176;49.156;7.810;2023-08-08T11:00:54;99141.69;;;20.28;48.38
75594;BME280;64176;49.156;7.810;2023-08-08T11:03:40;99154.84;;;20.26;48.55
75594;BME280;64176;49.156;7.810;2023-08-08T11:06:24;99146.66;;;19.59;48.68
75594;BME280;64176;49.156;7.810;2023-08-08T11:09:09;99131.19;;;19.52;47.50
75594;BME280;64176;49.156;7.810;2023-08-08T11:11:53;99132.78;;;19.56;46.84
75594;BME280;64176;49.156;7.810;2023-08-08T11:14:37;99142.31;;;19.85;47.38
75594;BME280;64176;49.156;7.810;2023-08-08T11:17:21;99139.09;;;20.02;48.02
75594;BME280;64176;49.156;7.810;2023-08-08T11:20:05;99135.13;;;20.15;49.54
75594;BME280;64176;49.156;7.810;2023-08-08T11:22:56;99120.78;;;20.00;45.97
75594;BME280;64176;49.156;7.810;2023-08-08T11:25:46;99138.34;;;20.23;44.34
75594;BME280;64176;49.156;7.810;2023-08-08T11:28:30;99132.19;;;20.49;42.86
75594;BME280;64176;49.156;7.810;2023-08-08T11:31:20;99134.59;;;20.30;42.63
75594;BME280;64176;49.156;7.810;2023-08-08T11:34:05;99131.97;;;20.30;42.29
75594;BME280;64176;49.156;7.810;2023-08-08T11:36:49;99124.81;;;20.35;42.74
75594;BME280;64176;49.156;7.810;2023-08-08T11:39:34;99148.63;;;20.29;43.81
75594;BME280;64176;49.156;7.810;2023-08-08T11:42:18;99138.91;;;20.08;43.81
75594;BME280;64176;49.156;7.810;2023-08-08T11:45:06;99139.09;;;20.26;45.00
75594;BME280;64176;49.156;7.810;2023-08-08T11:47:54;99133.56;;;20.34;44.52
75594;BME280;64176;49.156;7.810;2023-08-08T11:50:41;99135.81;;;20.21;43.42
75594;BME280;64176;49.156;7.810;2023-08-08T11:53:28;99133.13;;;20.71;44.74
75594;BME280;64176;49.156;7.810;2023-08-08T11:56:14;99130.03;;;20.60;44.60
75594;BME280;64176;49.156;7.810;2023-08-08T11:58:59;99126.91;;;20.74;44.41
75594;BME280;64176;49.156;7.810;2023-08-08T12:01:44;99122.94;;;20.14;45.22
75594;BME280;64176;49.156;7.810;2023-08-08T12:04:28;99130.47;;;20.23;44.60
75594;BME280;64176;49.156;7.810;2023-08-08T12:07:14;99116.78;;;20.40;45.22
75594;BME280;64176;49.156;7.810;2023-08-08T12:10:06;99127.66;;;20.54;45.09
75594;BME280;64176;49.156;7.810;2023-08-08T12:12:57;99117.50;;;20.90;44.37
75594;BME280;64176;49.156;7.810;2023-08-08T12:15:47;99126.94;;;20.24;44.73
75594;BME280;64176;49.156;7.810;2023-08-08T12:18:31;99117.81;;;20.35;45.42
75594;BME280;64176;49.156;7.810;2023-08-08T12:21:16;99122.66;;;20.69;45.43
75594;BME280;64176;49.156;7.810;2023-08-08T12:24:02;99104.56;;;20.85;43.59
75594;BME280;64176;49.156;7.810;2023-08-08T12:26:47;99114.53;;;20.54;44.97
75594;BME280;64176;49.156;7.810;2023-08-08T12:29:31;99112.84;;;20.51;45.58
75594;BME280;64176;49.156;7.810;2023-08-08T12:32:15;99108.66;;;19.97;45.60
75594;BME280;64176;49.156;7.810;2023-08-08T12:34:59;99108.81;;;20.18;45.10
75594;BME280;64176;49.156;7.810;2023-08-08T12:37:43;99093.25;;;20.37;45.20
75594;BME280;64176;49.156;7.810;2023-08-08T12:40:27;99102.94;;;20.34;45.38
75594;BME280;64176;49.156;7.810;2023-08-08T12:43:14;99091.66;;;21.01;44.70
75594;BME280;64176;49.156;7.810;2023-08-08T12:46:03;99092.78;;;21.17;43.84
75594;BME280;64176;49.156;7.810;2023-08-08T12:48:48;99101.47;;;20.97;42.24
75594;BME280;64176;49.156;7.810;2023-08-08T12:51:34;99095.94;;;21.03;42.22
75594;BME280;64176;49.156;7.810;2023-08-08T12:54:18;99088.63;;;21.33;42.39
75594;BME280;64176;49.156;7.810;2023-08-08T12:57:04;99094.97;;;21.06;42.44
75594;BME280;64176;49.156;7.810;2023-08-08T12:59:51;99093.44;;;21.44;42.93
75594;BME280;64176;49.156;7.810;2023-08-08T13:02:35;99098.88;;;20.96;42.89
75594;BME280;64176;49.156;7.810;2023-08-08T13:05:19;99104.88;;;21.21;42.98
75594;BME280;64176;49.156;7.810;2023-08-08T13:08:03;99084.81;;;21.20;43.09
75594;BME280;64176;49.156;7.810;2023-08-08T13:10:47;99093.69;;;20.94;43.24
75594;BME280;64176;49.156;7.810;2023-08-08T13:13:31;99097.22;;;20.93;44.31
75594;BME280;64176;49.156;7.810;2023-08-08T13:16:15;99080.00;;;20.86;43.45
75594;BME280;64176;49.156;7.810;2023-08-08T13:18:59;99091.59;;;21.02;43.08
75594;BME280;64176;49.156;7.810;2023-08-08T13:21:42;99091.84;;;20.75;43.01
75594;BME280;64176;49.156;7.810;2023-08-08T13:24:29;99093.38;;;20.57;43.34
75594;BME280;64176;49.156;7.810;2023-08-08T13:27:13;99087.56;;;20.72;44.40
75594;BME280;64176;49.156;7.810;2023-08-08T13:29:57;99094.38;;;20.29;44.28
75594;BME280;64176;49.156;7.810;2023-08-08T13:32:41;99087.75;;;20.19;43.77
75594;BME280;64176;49.156;7.810;2023-08-08T13:35:28;99084.03;;;20.25;44.60
75594;BME280;64176;49.156;7.810;2023-08-08T13:38:15;99089.94;;;20.31;44.13
75594;BME280;64176;49.156;7.810;2023-08-08T13:40:59;99090.25;;;20.22;44.85
75594;BME280;64176;49.156;7.810;2023-08-08T13:43:44;99081.28;;;20.53;45.82
75594;BME280;64176;49.156;7.810;2023-08-08T13:46:30;99090.75;;;20.57;45.17
75594;BME280;64176;49.156;7.810;2023-08-08T13:49:17;99074.41;;;20.72;44.85
75594;BME280;64176;49.156;7.810;2023-08-08T13:52:01;99073.69;;;20.90;45.24
75594;BME280;64176;49.156;7.810;2023-08-08T13:54:45;99075.09;;;20.99;44.69
75594;BME280;64176;49.156;7.810;2023-08-08T13:57:31;99063.94;;;20.94;44.08
75594;BME280;64176;49.156;7.810;2023-08-08T14:00:15;99056.50;;;21.27;43.95
75594;BME280;64176;49.156;7.810;2023-08-08T14:03:01;99048.91;;;21.41;43.44
75594;BME280;64176;49.156;7.810;2023-08-08T14:05:45;99051.47;;;21.42;43.82
75594;BME280;64176;49.156;7.810;2023-08-08T14:08:30;99059.97;;;21.05;44.03
75594;BME280;64176;49.156;7.810;2023-08-08T14:11:17;99062.47;;;20.87;43.84
75594;BME280;64176;49.156;7.810;2023-08-08T14:14:01;99057.00;;;20.69;45.06
75594;BME280;64176;49.156;7.810;2023-08-08T14:16:45;99072.16;;;20.63;45.57
75594;BME280;64176;49.156;7.810;2023-08-08T14:19:28;99068.41;;;20.22;46.35
75594;BME280;64176;49.156;7.810;2023-08-08T14:22:13;99080.41;;;20.29;46.80
75594;BME280;64176;49.156;7.810;2023-08-08T14:24:56;99073.94;;;20.39;46.98
75594;BME280;64176;49.156;7.810;2023-08-08T14:27:40;99074.31;;;20.04;47.51
75594;BME280;64176;49.156;7.810;2023-08-08T14:30:24;99076.06;;;20.28;48.06
75594;BME280;64176;49.156;7.810;2023-08-08T14:33:14;99070.00;;;20.26;48.31
75594;BME280;64176;49.156;7.810;2023-08-08T14:35:59;99075.78;;;19.87;48.39
75594;BME280;64176;49.156;7.810;2023-08-08T14:38:43;99068.81;;;19.86;49.20
75594;BME280;64176;49.156;7.810;2023-08-08T14:41:27;99064.44;;;19.87;48.87
75594;BME280;64176;49.156;7.810;2023-08-08T14:44:12;99047.59;;;19.92;50.77